sensor_id;sensor_type;location;lat;lon;timestamp;pressure;altitude;pressure_sealevel;temperature;humidity
8292;BME280;4184;42.724;23.308;2022-09-30T00:01:10;95079.69;;;17.35;73.75
8292;BME280;4184;42.724;23.308;2022-09-30T00:03:37;95081.31;;;17.36;73.70
8292;BME280;4184;42.724;23.308;2022-09-30T00:06:06;95068.41;;;17.35;73.59
8292;BME280;4184;42.724;23.308;2022-09-30T00:08:36;95079.59;;;17.29;73.95
8292;BME280;4184;42.724;23.308;2022-09-30T00:11:06;95078.34;;;17.25;73.83
8292;BME280;4184;42.724;23.308;2022-09-30T00:13:37;95083.31;;;17.20;74.18
8292;BME280;4184;42.724;23.308;2022-09-30T00:16:05;95085.28;;;17.18;74.14
8292;BME280;4184;42.724;23.308;2022-09-30T00:18:33;95076.47;;;17.19;74.37
8292;BME280;4184;42.724;23.308;2022-09-30T00:21:02;95080.88;;;17.18;74.36
8292;BME280;4184;42.724;23.308;2022-09-30T00:23:29;95087.09;;;17.17;74.26
8292;BME280;4184;42.724;23.308;2022-09-30T00:26:00;95086.28;;;17.17;74.48
8292;BME280;4184;42.724;23.308;2022-09-30T00:28:29;95086.28;;;17.17;74.36
8292;BME280;4184;42.724;23.308;2022-09-30T00:30:58;95085.47;;;17.16;74.63
8292;BME280;4184;42.724;23.308;2022-09-30T00:33:26;95085.47;;;17.16;74.46
8292;BME280;4184;42.724;23.308;2022-09-30T00:35:56;95080.25;;;17.16;74.50
8292;BME280;4184;42.724;23.308;2022-09-30T00:38:24;95084.66;;;17.16;74.51
8292;BME280;4184;42.724;23.308;2022-09-30T00:40:52;95077.81;;;17.14;74.38
8292;BME280;4184;42.724;23.308;2022-09-30T00:43:41;95084.03;;;17.13;74.22
8292;BME280;4184;42.724;23.308;2022-09-30T00:46:18;95076.53;;;17.10;74.21
8292;BME280;4184;42.724;23.308;2022-09-30T00:48:48;95077.53;;;17.09;74.20
8292;BME280;4184;42.724;23.308;2022-09-30T00:51:22;95076.09;;;17.07;74.28
8292;BME280;4184;42.724;23.308;2022-09-30T00:53:55;95081.88;;;17.02;73.96
8292;BME280;4184;42.724;23.308;2022-09-30T00:56:26;95079.16;;;16.96;74.20
8292;BME280;4184;42.724;23.308;2022-09-30T00:59:00;95083.50;;;16.89;74.45
8292;BME280;4184;42.724;23.308;2022-09-30T01:01:30;95077.03;;;16.84;74.33
8292;BME280;4184;42.724;23.308;2022-09-30T01:04:00;95082.78;;;16.80;74.59
8292;BME280;4184;42.724;23.308;2022-09-30T01:06:29;95077.28;;;16.75;74.84
8292;BME280;4184;42.724;23.308;2022-09-30T01:08:56;95079.16;;;16.66;74.87
8292;BME280;4184;42.724;23.308;2022-09-30T01:11:25;95081.13;;;16.64;74.93
8292;BME280;4184;42.724;23.308;2022-09-30T01:13:57;95082.44;;;16.60;74.99
8292;BME280;4184;42.724;23.308;2022-09-30T01:16:38;95083.00;;;16.55;75.36
8292;BME280;4184;42.724;23.308;2022-09-30T01:19:25;95084.16;;;16.53;75.35
8292;BME280;4184;42.724;23.308;2022-09-30T01:22:16;95083.97;;;16.54;75.45
8292;BME280;4184;42.724;23.308;2022-09-30T01:25:24;95095.69;;;16.59;75.38
8292;BME280;4184;42.724;23.308;2022-09-30T01:28:28;95097.94;;;16.62;75.16
8292;BME280;4184;42.724;23.308;2022-09-30T01:31:13;95095.69;;;16.59;75.17
8292;BME280;4184;42.724;23.308;2022-09-30T01:33:52;95091.44;;;16.58;75.33
8292;BME280;4184;42.724;23.308;2022-09-30T01:36:36;95084.25;;;16.60;75.18
8292;BME280;4184;42.724;23.308;2022-09-30T01:39:19;95088.31;;;16.62;75.09
8292;BME280;4184;42.724;23.308;2022-09-30T01:41:53;95089.09;;;16.63;75.01
8292;BME280;4184;42.724;23.308;2022-09-30T01:44:32;95088.31;;;16.62;74.82
8292;BME280;4184;42.724;23.308;2022-09-30T01:47:09;95091.91;;;16.61;74.95
8292;BME280;4184;42.724;23.308;2022-09-30T01:49:40;95095.31;;;16.62;74.63
8292;BME280;4184;42.724;23.308;2022-09-30T01:52:12;95091.44;;;16.58;74.83
8292;BME280;4184;42.724;23.308;2022-09-30T01:54:44;95087.03;;;16.58;74.84
8292;BME280;4184;42.724;23.308;2022-09-30T01:57:17;95095.06;;;16.57;74.79
8292;BME280;4184;42.724;23.308;2022-09-30T01:59:52;95095.22;;;16.55;74.81
8292;BME280;4184;42.724;23.308;2022-09-30T02:02:25;95091.81;;;16.54;74.84
8292;BME280;4184;42.724;23.308;2022-09-30T02:04:56;95089.19;;;16.54;74.93
8292;BME280;4184;42.724;23.308;2022-09-30T02:07:29;95094.41;;;16.54;74.89
8292;BME280;4184;42.724;23.308;2022-09-30T02:10:00;95092.00;;;16.53;74.99
8292;BME280;4184;42.724;23.308;2022-09-30T02:12:33;95095.78;;;16.50;74.97
8292;BME280;4184;42.724;23.308;2022-09-30T02:15:07;95098.75;;;16.47;74.89
8292;BME280;4184;42.724;23.308;2022-09-30T02:17:39;95098.25;;;16.44;75.05
8292;BME280;4184;42.724;23.308;2022-09-30T02:20:14;95100.06;;;16.43;75.06
8292;BME280;4184;42.724;23.308;2022-09-30T02:22:47;95097.63;;;16.42;74.67
8292;BME280;4184;42.724;23.308;2022-09-30T02:25:18;95098.44;;;16.42;74.68
8292;BME280;4184;42.724;23.308;2022-09-30T02:27:53;95101.84;;;16.43;74.53
8292;BME280;4184;42.724;23.308;2022-09-30T02:30:22;95104.66;;;16.41;74.52
8292;BME280;4184;42.724;23.308;2022-09-30T02:32:54;95110.41;;;16.37;74.54
8292;BME280;4184;42.724;23.308;2022-09-30T02:35:26;95115.16;;;16.33;74.66
8292;BME280;4184;42.724;23.308;2022-09-30T02:37:59;95108.16;;;16.34;74.34
8292;BME280;4184;42.724;23.308;2022-09-30T02:40:34;95110.59;;;16.35;74.55
8292;BME280;4184;42.724;23.308;2022-09-30T02:43:05;95108.78;;;16.36;74.16
8292;BME280;4184;42.724;23.308;2022-09-30T02:45:40;95102.75;;;16.35;74.36
8292;BME280;4184;42.724;23.308;2022-09-30T02:48:20;95115.78;;;16.35;74.52
8292;BME280;4184;42.724;23.308;2022-09-30T02:50:56;95109.59;;;16.36;74.41
8292;BME280;4184;42.724;23.308;2022-09-30T02:53:32;95122.34;;;16.31;74.62
8292;BME280;4184;42.724;23.308;2022-09-30T02:56:22;95125.19;;;16.21;74.94
8292;BME280;4184;42.724;23.308;2022-09-30T02:58:51;95120.34;;;16.18;75.48
8292;BME280;4184;42.724;23.308;2022-09-30T03:01:21;95113.19;;;16.12;75.75
8292;BME280;4184;42.724;23.308;2022-09-30T03:03:53;95124.97;;;16.08;75.59
8292;BME280;4184;42.724;23.308;2022-09-30T03:06:22;95127.13;;;16.05;75.75
8292;BME280;4184;42.724;23.308;2022-09-30T03:08:51;95123.88;;;16.03;75.82
8292;BME280;4184;42.724;23.308;2022-09-30T03:11:20;95129.44;;;16.00;76.04
8292;BME280;4184;42.724;23.308;2022-09-30T03:14:20;95128.50;;;15.92;76.00
8292;BME280;4184;42.724;23.308;2022-09-30T03:20:13;95127.56;;;15.85;76.14
8292;BME280;4184;42.724;23.308;2022-09-30T03:23:14;95127.56;;;15.85;76.09
8292;BME280;4184;42.724;23.308;2022-09-30T03:25:50;95112.75;;;15.86;76.04
8292;BME280;4184;42.724;23.308;2022-09-30T03:28:24;95117.16;;;15.85;76.22
8292;BME280;4184;42.724;23.308;2022-09-30T03:31:02;95124.78;;;15.87;76.28
8292;BME280;4184;42.724;23.308;2022-09-30T03:33:38;95131.63;;;15.88;76.18
8292;BME280;4184;42.724;23.308;2022-09-30T03:36:17;95133.25;;;15.89;76.27
8292;BME280;4184;42.724;23.308;2022-09-30T03:38:57;95126.69;;;15.93;76.05
8292;BME280;4184;42.724;23.308;2022-09-30T03:41:30;95121.97;;;15.97;76.08
8292;BME280;4184;42.724;23.308;2022-09-30T03:44:03;95121.78;;;15.98;76.22
8292;BME280;4184;42.724;23.308;2022-09-30T03:46:35;95131.06;;;16.01;76.24
8292;BME280;4184;42.724;23.308;2022-09-30T03:49:10;95146.34;;;16.04;75.97
8292;BME280;4184;42.724;23.308;2022-09-30T03:51:41;95154.81;;;16.06;75.93
8292;BME280;4184;42.724;23.308;2022-09-30T03:54:10;95159.84;;;16.07;76.04
8292;BME280;4184;42.724;23.308;2022-09-30T03:56:38;95146.00;;;16.07;76.16
8292;BME280;4184;42.724;23.308;2022-09-30T03:59:10;95154.28;;;16.10;75.88
8292;BME280;4184;42.724;23.308;2022-09-30T04:01:38;95162.91;;;16.11;76.02
8292;BME280;4184;42.724;23.308;2022-09-30T04:04:06;95166.84;;;16.07;76.21
8292;BME280;4184;42.724;23.308;2022-09-30T04:06:33;95159.38;;;16.04;76.28
8292;BME280;4184;42.724;23.308;2022-09-30T04:09:02;95152.53;;;16.03;76.39
8292;BME280;4184;42.724;23.308;2022-09-30T04:11:30;95151.56;;;16.04;76.45
8292;BME280;4184;42.724;23.308;2022-09-30T04:13:57;95156.44;;;16.07;76.27
8292;BME280;4184;42.724;23.308;2022-09-30T04:16:28;95157.25;;;16.07;76.18
8292;BME280;4184;42.724;23.308;2022-09-30T04:18:56;95144.19;;;16.07;76.17
8292;BME280;4184;42.724;23.308;2022-09-30T04:21:24;95151.56;;;16.04;76.15
8292;BME280;4184;42.724;23.308;2022-09-30T04:23:54;95148.31;;;16.02;76.23
8292;BME280;4184;42.724;23.308;2022-09-30T04:26:27;95150.94;;;16.02;76.17
8292;BME280;4184;42.724;23.308;2022-09-30T04:28:55;95149.31;;;16.01;76.03
8292;BME280;4184;42.724;23.308;2022-09-30T04:31:24;95157.13;;;16.01;76.21
8292;BME280;4184;42.724;23.308;2022-09-30T04:33:51;95162.34;;;16.01;76.25
8292;BME280;4184;42.724;23.308;2022-09-30T04:36:19;95160.72;;;16.00;76.37
8292;BME280;4184;42.724;23.308;2022-09-30T04:38:46;95163.97;;;16.02;76.12
8292;BME280;4184;42.724;23.308;2022-09-30T04:41:15;95168.81;;;16.05;76.29
8292;BME280;4184;42.724;23.308;2022-09-30T04:43:45;95174.03;;;16.05;76.06
8292;BME280;4184;42.724;23.308;2022-09-30T04:46:14;95177.47;;;16.05;76.10
8292;BME280;4184;42.724;23.308;2022-09-30T04:48:42;95184.94;;;16.08;76.17
8292;BME280;4184;42.724;23.308;2022-09-30T04:51:11;95180.88;;;16.06;76.40
8292;BME280;4184;42.724;23.308;2022-09-30T04:53:39;95181.22;;;16.03;76.42
8292;BME280;4184;42.724;23.308;2022-09-30T04:56:07;95199.47;;;16.03;76.49
8292;BME280;4184;42.724;23.308;2022-09-30T04:58:34;95203.06;;;16.02;76.35
8292;BME280;4184;42.724;23.308;2022-09-30T05:01:04;95206.50;;;16.02;76.37
8292;BME280;4184;42.724;23.308;2022-09-30T05:03:33;95202.44;;;16.00;76.42
8292;BME280;4184;42.724;23.308;2022-09-30T05:06:01;95197.22;;;16.00;76.56
8292;BME280;4184;42.724;23.308;2022-09-30T05:08:29;95190.03;;;16.02;76.50
8292;BME280;4184;42.724;23.308;2022-09-30T05:10:59;95198.50;;;16.04;76.29
8292;BME280;4184;42.724;23.308;2022-09-30T05:13:31;95206.59;;;16.09;76.53
8292;BME280;4184;42.724;23.308;2022-09-30T05:15:59;95217.03;;;16.09;76.73
8292;BME280;4184;42.724;23.308;2022-09-30T05:18:28;95228.28;;;16.09;76.65
8292;BME280;4184;42.724;23.308;2022-09-30T05:20:57;95229.09;;;16.10;76.58
8292;BME280;4184;42.724;23.308;2022-09-30T05:23:25;95224.69;;;16.10;76.76
8292;BME280;4184;42.724;23.308;2022-09-30T05:25:53;95211.47;;;16.12;76.72
8292;BME280;4184;42.724;23.308;2022-09-30T05:28:21;95217.50;;;16.12;76.69
8292;BME280;4184;42.724;23.308;2022-09-30T05:30:51;95210.66;;;16.11;76.63
8292;BME280;4184;42.724;23.308;2022-09-30T05:33:20;95213.94;;;16.13;76.72
8292;BME280;4184;42.724;23.308;2022-09-30T05:35:49;95225.19;;;16.14;76.66
8292;BME280;4184;42.724;23.308;2022-09-30T05:38:17;95227.13;;;16.12;76.91
8292;BME280;4184;42.724;23.308;2022-09-30T05:40:45;95251.41;;;16.12;76.78
8292;BME280;4184;42.724;23.308;2022-09-30T05:43:12;95230.53;;;16.12;76.45
8292;BME280;4184;42.724;23.308;2022-09-30T05:45:40;95253.19;;;16.12;76.63
8292;BME280;4184;42.724;23.308;2022-09-30T05:48:07;95244.25;;;16.14;76.60
8292;BME280;4184;42.724;23.308;2022-09-30T05:50:35;95257.75;;;16.18;76.34
8292;BME280;4184;42.724;23.308;2022-09-30T05:53:04;95245.81;;;16.23;76.18
8292;BME280;4184;42.724;23.308;2022-09-30T05:55:31;95258.47;;;16.35;76.08
8292;BME280;4184;42.724;23.308;2022-09-30T05:57:59;95251.72;;;16.40;75.85
8292;BME280;4184;42.724;23.308;2022-09-30T06:00:26;95250.56;;;16.43;75.79
8292;BME280;4184;42.724;23.308;2022-09-30T06:02:54;95253.00;;;16.44;75.96
8292;BME280;4184;42.724;23.308;2022-09-30T06:05:22;95254.31;;;16.48;75.91
8292;BME280;4184;42.724;23.308;2022-09-30T06:07:49;95261.59;;;16.53;75.73
8292;BME280;4184;42.724;23.308;2022-09-30T06:10:18;95249.00;;;16.57;75.98
8292;BME280;4184;42.724;23.308;2022-09-30T06:12:46;95256.97;;;16.63;75.73
8292;BME280;4184;42.724;23.308;2022-09-30T06:15:13;95258.28;;;16.67;75.66
8292;BME280;4184;42.724;23.308;2022-09-30T06:17:41;95253.16;;;16.74;75.75
8292;BME280;4184;42.724;23.308;2022-09-30T06:20:09;95252.47;;;16.80;75.38
8292;BME280;4184;42.724;23.308;2022-09-30T06:22:37;95264.53;;;16.81;75.52
8292;BME280;4184;42.724;23.308;2022-09-30T06:25:05;95269.91;;;16.79;75.42
8292;BME280;4184;42.724;23.308;2022-09-30T06:27:35;95275.97;;;16.80;75.84
8292;BME280;4184;42.724;23.308;2022-09-30T06:30:04;95273.34;;;16.80;75.69
8292;BME280;4184;42.724;23.308;2022-09-30T06:32:31;95286.41;;;16.80;75.82
8292;BME280;4184;42.724;23.308;2022-09-30T06:34:59;95289.66;;;16.82;75.70
8292;BME280;4184;42.724;23.308;2022-09-30T06:37:29;95297.13;;;16.85;75.67
8292;BME280;4184;42.724;23.308;2022-09-30T06:39:56;95287.94;;;16.89;75.53
8292;BME280;4184;42.724;23.308;2022-09-30T06:42:24;95284.00;;;16.93;75.42
8292;BME280;4184;42.724;23.308;2022-09-30T06:44:52;95292.78;;;17.00;75.48
8292;BME280;4184;42.724;23.308;2022-09-30T06:47:20;95296.66;;;17.04;75.40
8292;BME280;4184;42.724;23.308;2022-09-30T06:49:48;95309.16;;;17.09;75.11
8292;BME280;4184;42.724;23.308;2022-09-30T06:52:18;95305.75;;;17.08;74.89
8292;BME280;4184;42.724;23.308;2022-09-30T06:54:46;95309.63;;;17.12;74.87
8292;BME280;4184;42.724;23.308;2022-09-30T06:57:16;95314.16;;;17.19;74.68
8292;BME280;4184;42.724;23.308;2022-09-30T06:59:47;95320.66;;;17.23;74.68
8292;BME280;4184;42.724;23.308;2022-09-30T07:02:16;95327.13;;;17.27;74.87
8292;BME280;4184;42.724;23.308;2022-09-30T07:04:44;95328.44;;;17.31;74.81
8292;BME280;4184;42.724;23.308;2022-09-30T07:07:12;95326.91;;;17.36;74.45
8292;BME280;4184;42.724;23.308;2022-09-30T07:09:39;95333.56;;;17.39;74.55
8292;BME280;4184;42.724;23.308;2022-09-30T07:12:08;95338.09;;;17.45;74.31
8292;BME280;4184;42.724;23.308;2022-09-30T07:14:36;95340.47;;;17.55;73.93
8292;BME280;4184;42.724;23.308;2022-09-30T07:17:04;95334.31;;;17.62;73.47
8292;BME280;4184;42.724;23.308;2022-09-30T07:19:33;95348.34;;;17.69;73.32
8292;BME280;4184;42.724;23.308;2022-09-30T07:22:01;95345.19;;;17.74;73.48
8292;BME280;4184;42.724;23.308;2022-09-30T07:24:43;95346.13;;;17.81;73.36
8292;BME280;4184;42.724;23.308;2022-09-30T07:27:10;95353.69;;;17.91;73.08
8292;BME280;4184;42.724;23.308;2022-09-30T07:29:38;95340.44;;;18.07;72.58
8292;BME280;4184;42.724;23.308;2022-09-30T07:32:06;95336.34;;;18.34;72.42
8292;BME280;4184;42.724;23.308;2022-09-30T07:34:36;95326.69;;;18.85;71.22
8292;BME280;4184;42.724;23.308;2022-09-30T07:37:04;95333.41;;;19.16;69.92
8292;BME280;4184;42.724;23.308;2022-09-30T07:39:31;95340.75;;;19.48;69.53
8292;BME280;4184;42.724;23.308;2022-09-30T07:41:59;95342.63;;;19.82;68.27
8292;BME280;4184;42.724;23.308;2022-09-30T07:44:27;95342.34;;;20.05;67.75
8292;BME280;4184;42.724;23.308;2022-09-30T07:46:55;95342.91;;;20.35;66.85
8292;BME280;4184;42.724;23.308;2022-09-30T07:49:23;95339.44;;;20.69;65.92
8292;BME280;4184;42.724;23.308;2022-09-30T07:51:54;95350.47;;;21.32;64.62
8292;BME280;4184;42.724;23.308;2022-09-30T07:54:24;95356.13;;;22.02;62.79
8292;BME280;4184;42.724;23.308;2022-09-30T07:56:52;95350.47;;;22.70;61.27
8292;BME280;4184;42.724;23.308;2022-09-30T07:59:20;95338.97;;;23.84;58.53
8292;BME280;4184;42.724;23.308;2022-09-30T08:01:48;95346.03;;;25.00;55.52
8292;BME280;4184;42.724;23.308;2022-09-30T08:04:18;95347.59;;;26.07;53.30
8292;BME280;4184;42.724;23.308;2022-09-30T08:06:47;95354.47;;;27.07;50.89
8292;BME280;4184;42.724;23.308;2022-09-30T08:09:19;95345.84;;;27.96;48.64
8292;BME280;4184;42.724;23.308;2022-09-30T08:11:47;95344.19;;;28.72;47.03
8292;BME280;4184;42.724;23.308;2022-09-30T08:14:17;95350.56;;;29.42;45.60
8292;BME280;4184;42.724;23.308;2022-09-30T08:16:45;95348.91;;;30.00;43.93
8292;BME280;4184;42.724;23.308;2022-09-30T08:19:14;95359.16;;;30.60;42.78
8292;BME280;4184;42.724;23.308;2022-09-30T08:21:43;95356.66;;;31.06;42.00
8292;BME280;4184;42.724;23.308;2022-09-30T08:24:11;95354.88;;;31.32;41.45
8292;BME280;4184;42.724;23.308;2022-09-30T08:26:40;95365.56;;;31.57;40.52
8292;BME280;4184;42.724;23.308;2022-09-30T08:29:08;95357.34;;;31.94;39.66
8292;BME280;4184;42.724;23.308;2022-09-30T08:31:39;95363.16;;;32.22;39.11
8292;BME280;4184;42.724;23.308;2022-09-30T08:34:06;95359.66;;;32.47;38.39
8292;BME280;4184;42.724;23.308;2022-09-30T08:36:34;95367.03;;;32.75;38.08
8292;BME280;4184;42.724;23.308;2022-09-30T08:39:02;95372.59;;;32.99;37.86
8292;BME280;4184;42.724;23.308;2022-09-30T08:44:43;95357.53;;;33.58;36.91
8292;BME280;4184;42.724;23.308;2022-09-30T08:47:32;95364.06;;;33.80;36.19
8292;BME280;4184;42.724;23.308;2022-09-30T08:50:09;95365.47;;;34.07;35.66
8292;BME280;4184;42.724;23.308;2022-09-30T08:52:42;95368.56;;;34.19;35.12
8292;BME280;4184;42.724;23.308;2022-09-30T08:55:18;95373.00;;;34.05;35.79
8292;BME280;4184;42.724;23.308;2022-09-30T08:57:47;95369.16;;;34.16;34.79
8292;BME280;4184;42.724;23.308;2022-09-30T09:00:17;95375.22;;;34.27;34.71
8292;BME280;4184;42.724;23.308;2022-09-30T09:02:48;95376.72;;;34.38;34.30
8292;BME280;4184;42.724;23.308;2022-09-30T09:05:27;95373.34;;;34.27;34.72
8292;BME280;4184;42.724;23.308;2022-09-30T09:08:03;95368.16;;;34.36;34.71
8292;BME280;4184;42.724;23.308;2022-09-30T09:10:40;95378.44;;;34.24;34.54
8292;BME280;4184;42.724;23.308;2022-09-30T09:13:18;95376.75;;;34.04;35.20
8292;BME280;4184;42.724;23.308;2022-09-30T09:16:01;95382.03;;;33.80;35.58
8292;BME280;4184;42.724;23.308;2022-09-30T09:18:50;95381.84;;;33.71;35.38
8292;BME280;4184;42.724;23.308;2022-09-30T09:21:25;95383.06;;;33.50;35.06
8292;BME280;4184;42.724;23.308;2022-09-30T09:24:00;95382.50;;;33.53;35.15
8292;BME280;4184;42.724;23.308;2022-09-30T09:26:31;95375.38;;;33.72;34.98
8292;BME280;4184;42.724;23.308;2022-09-30T09:29:09;95381.84;;;33.71;34.69
8292;BME280;4184;42.724;23.308;2022-09-30T09:31:42;95385.41;;;33.62;34.76
8292;BME280;4184;42.724;23.308;2022-09-30T09:34:12;95384.66;;;33.51;34.81
8292;BME280;4184;42.724;23.308;2022-09-30T09:37:02;95386.50;;;33.61;34.67
8292;BME280;4184;42.724;23.308;2022-09-30T09:40:00;95376.50;;;33.66;34.99
8292;BME280;4184;42.724;23.308;2022-09-30T09:42:43;95378.69;;;33.64;34.37
8292;BME280;4184;42.724;23.308;2022-09-30T09:45:21;95369.94;;;33.48;34.85
8292;BME280;4184;42.724;23.308;2022-09-30T09:47:52;95373.47;;;33.44;34.45
8292;BME280;4184;42.724;23.308;2022-09-30T09:50:24;95379.41;;;33.31;34.91
8292;BME280;4184;42.724;23.308;2022-09-30T09:53:19;95373.63;;;33.13;35.09
8292;BME280;4184;42.724;23.308;2022-09-30T09:55:50;95368.88;;;32.90;35.48
8292;BME280;4184;42.724;23.308;2022-09-30T09:58:20;95361.75;;;32.65;35.74
8292;BME280;4184;42.724;23.308;2022-09-30T10:00:47;95371.16;;;32.52;35.57
8292;BME280;4184;42.724;23.308;2022-09-30T10:04:07;95363.72;;;32.19;35.74
8292;BME280;4184;42.724;23.308;2022-09-30T10:06:47;95367.75;;;31.91;35.84
8292;BME280;4184;42.724;23.308;2022-09-30T10:09:29;95370.38;;;31.55;36.23
8292;BME280;4184;42.724;23.308;2022-09-30T10:12:23;95364.91;;;30.94;37.22
8292;BME280;4184;42.724;23.308;2022-09-30T10:14:56;95364.22;;;30.09;38.36
8292;BME280;4184;42.724;23.308;2022-09-30T10:17:28;95368.81;;;29.28;39.50
8292;BME280;4184;42.724;23.308;2022-09-30T10:20:01;95373.78;;;28.54;40.38
8292;BME280;4184;42.724;23.308;2022-09-30T10:22:32;95367.56;;;28.09;41.26
8292;BME280;4184;42.724;23.308;2022-09-30T10:25:20;95356.88;;;27.71;42.08
8292;BME280;4184;42.724;23.308;2022-09-30T10:27:56;95358.84;;;27.30;42.79
8292;BME280;4184;42.724;23.308;2022-09-30T10:30:48;95356.00;;;26.91;43.07
8292;BME280;4184;42.724;23.308;2022-09-30T10:33:20;95347.19;;;26.62;43.50
8292;BME280;4184;42.724;23.308;2022-09-30T10:36:04;95360.03;;;26.42;43.72
8292;BME280;4184;42.724;23.308;2022-09-30T10:38:34;95360.16;;;26.24;43.82
8292;BME280;4184;42.724;23.308;2022-09-30T10:41:03;95355.91;;;26.11;44.01
8292;BME280;4184;42.724;23.308;2022-09-30T10:43:35;95343.09;;;25.96;44.74
8292;BME280;4184;42.724;23.308;2022-09-30T10:46:05;95350.13;;;25.79;44.71
8292;BME280;4184;42.724;23.308;2022-09-30T10:48:35;95340.75;;;25.65;45.02
8292;BME280;4184;42.724;23.308;2022-09-30T10:51:05;95344.00;;;25.55;44.46
8292;BME280;4184;42.724;23.308;2022-09-30T10:53:47;95344.06;;;25.48;43.74
8292;BME280;4184;42.724;23.308;2022-09-30T10:56:35;95358.94;;;25.49;44.15
8292;BME280;4184;42.724;23.308;2022-09-30T10:59:06;95346.72;;;25.48;43.77
8292;BME280;4184;42.724;23.308;2022-09-30T11:01:47;95347.75;;;25.47;44.23
8292;BME280;4184;42.724;23.308;2022-09-30T11:04:23;95357.44;;;25.42;44.77
8292;BME280;4184;42.724;23.308;2022-09-30T11:06:56;95357.09;;;25.38;44.92
8292;BME280;4184;42.724;23.308;2022-09-30T11:09:32;95353.84;;;25.36;44.43
8292;BME280;4184;42.724;23.308;2022-09-30T11:12:08;95358.31;;;25.36;44.78
8292;BME280;4184;42.724;23.308;2022-09-30T11:14:43;95351.06;;;25.31;44.38
8292;BME280;4184;42.724;23.308;2022-09-30T11:17:23;95348.66;;;25.30;44.63
8292;BME280;4184;42.724;23.308;2022-09-30T11:19:59;95343.34;;;25.30;44.12
8292;BME280;4184;42.724;23.308;2022-09-30T11:22:40;95351.41;;;25.35;44.24
8292;BME280;4184;42.724;23.308;2022-09-30T11:25:13;95352.38;;;25.40;44.14
8292;BME280;4184;42.724;23.308;2022-09-30T11:27:52;95353.63;;;25.38;44.25
8292;BME280;4184;42.724;23.308;2022-09-30T11:30:27;95358.53;;;25.34;44.22
8292;BME280;4184;42.724;23.308;2022-09-30T11:33:11;95355.09;;;25.34;44.05
8292;BME280;4184;42.724;23.308;2022-09-30T11:35:53;95362.81;;;25.35;43.39
8292;BME280;4184;42.724;23.308;2022-09-30T11:38:34;95355.91;;;25.34;43.95
8292;BME280;4184;42.724;23.308;2022-09-30T11:41:10;95365.25;;;25.37;43.76
8292;BME280;4184;42.724;23.308;2022-09-30T11:43:46;95365.59;;;25.40;43.03
8292;BME280;4184;42.724;23.308;2022-09-30T11:50:01;95354.81;;;25.54;42.43
8292;BME280;4184;42.724;23.308;2022-09-30T11:52:41;95362.88;;;25.59;42.24
8292;BME280;4184;42.724;23.308;2022-09-30T11:55:34;95366.66;;;25.63;42.34
8292;BME280;4184;42.724;23.308;2022-09-30T11:58:08;95360.47;;;25.69;42.37
8292;BME280;4184;42.724;23.308;2022-09-30T12:00:38;95355.78;;;25.71;42.30
8292;BME280;4184;42.724;23.308;2022-09-30T12:03:10;95354.97;;;25.70;42.69
8292;BME280;4184;42.724;23.308;2022-09-30T12:05:42;95359.47;;;25.70;42.73
8292;BME280;4184;42.724;23.308;2022-09-30T12:08:15;95359.47;;;25.70;42.82
8292;BME280;4184;42.724;23.308;2022-09-30T12:10:49;95357.84;;;25.69;42.45
8292;BME280;4184;42.724;23.308;2022-09-30T12:13:22;95363.56;;;25.66;42.39
8292;BME280;4184;42.724;23.308;2022-09-30T12:15:53;95366.09;;;25.61;42.59
8292;BME280;4184;42.724;23.308;2022-09-30T12:18:25;95370.69;;;25.54;43.08
8292;BME280;4184;42.724;23.308;2022-09-30T12:20:56;95369.50;;;25.49;42.82
8292;BME280;4184;42.724;23.308;2022-09-30T12:23:29;95363.88;;;25.46;43.07
8292;BME280;4184;42.724;23.308;2022-09-30T12:26:01;95369.16;;;25.46;42.71
8292;BME280;4184;42.724;23.308;2022-09-30T12:28:32;95370.56;;;25.48;42.89
8292;BME280;4184;42.724;23.308;2022-09-30T12:31:36;95374.34;;;25.53;42.91
8292;BME280;4184;42.724;23.308;2022-09-30T12:34:19;95373.13;;;25.55;43.33
8292;BME280;4184;42.724;23.308;2022-09-30T12:37:03;95374.34;;;25.53;43.53
8292;BME280;4184;42.724;23.308;2022-09-30T12:46:15;95374.13;;;25.42;43.04
8292;BME280;4184;42.724;23.308;2022-09-30T12:48:47;95371.34;;;25.37;43.53
8292;BME280;4184;42.724;23.308;2022-09-30T12:51:25;95373.28;;;25.30;43.60
8292;BME280;4184;42.724;23.308;2022-09-30T12:53:59;95371.09;;;25.27;43.65
8292;BME280;4184;42.724;23.308;2022-09-30T12:56:30;95375.22;;;25.23;44.07
8292;BME280;4184;42.724;23.308;2022-09-30T12:59:01;95375.69;;;25.20;43.61
8292;BME280;4184;42.724;23.308;2022-09-30T13:01:30;95369.78;;;25.18;43.52
8292;BME280;4184;42.724;23.308;2022-09-30T13:04:29;95372.88;;;25.15;43.33
8292;BME280;4184;42.724;23.308;2022-09-30T13:07:14;95371.25;;;25.14;43.71
8292;BME280;4184;42.724;23.308;2022-09-30T13:09:58;95376.78;;;25.12;43.15
8292;BME280;4184;42.724;23.308;2022-09-30T13:12:38;95371.25;;;25.14;42.86
8292;BME280;4184;42.724;23.308;2022-09-30T13:15:41;95370.22;;;25.15;42.98
8292;BME280;4184;42.724;23.308;2022-09-30T13:21:20;95369.19;;;25.16;43.32
8292;BME280;4184;42.724;23.308;2022-09-30T13:23:49;95368.03;;;25.12;43.44
8292;BME280;4184;42.724;23.308;2022-09-30T13:26:47;95366.44;;;25.11;42.89
8292;BME280;4184;42.724;23.308;2022-09-30T13:29:34;95371.59;;;25.06;43.25
8292;BME280;4184;42.724;23.308;2022-09-30T13:32:09;95379.97;;;25.03;43.20
8292;BME280;4184;42.724;23.308;2022-09-30T13:38:09;95382.81;;;25.01;43.48
8292;BME280;4184;42.724;23.308;2022-09-30T13:40:41;95389.94;;;25.01;43.16
8292;BME280;4184;42.724;23.308;2022-09-30T13:43:15;95387.31;;;25.01;43.15
8292;BME280;4184;42.724;23.308;2022-09-30T13:45:45;95382.41;;;25.04;42.63
8292;BME280;4184;42.724;23.308;2022-09-30T13:48:16;95381.13;;;25.07;42.65
8292;BME280;4184;42.724;23.308;2022-09-30T13:50:47;95381.13;;;25.07;42.55
8292;BME280;4184;42.724;23.308;2022-09-30T13:53:26;95377.47;;;25.08;42.91
8292;BME280;4184;42.724;23.308;2022-09-30T13:55:57;95372.88;;;25.15;43.08
8292;BME280;4184;42.724;23.308;2022-09-30T13:58:49;95385.81;;;25.35;42.83
8292;BME280;4184;42.724;23.308;2022-09-30T14:01:37;95383.22;;;25.46;42.02
8292;BME280;4184;42.724;23.308;2022-09-30T14:04:27;95391.03;;;25.41;42.03
8292;BME280;4184;42.724;23.308;2022-09-30T14:07:07;95401.94;;;25.33;42.21